createdAt,value
2022-08-25T00:00:12.181Z,4.47
2022-08-25T00:02:39.047Z,3.92
2022-08-25T00:05:06.591Z,3.92
2022-08-25T00:07:34.251Z,4.40
2022-08-25T00:10:01.510Z,4.70
2022-08-25T00:12:28.621Z,4.72
2022-08-25T00:14:55.385Z,3.13
2022-08-25T00:17:22.079Z,4.10
2022-08-25T00:19:48.832Z,4.18
2022-08-25T00:22:16.079Z,4.07
2022-08-25T00:24:43.258Z,4.22
2022-08-25T00:27:12.598Z,3.72
2022-08-25T00:29:39.753Z,3.45
2022-08-25T00:32:06.818Z,3.83
2022-08-25T00:34:36.859Z,3.92
2022-08-25T00:37:07.302Z,4.97
2022-08-25T00:39:34.567Z,3.33
2022-08-25T00:42:03.115Z,3.88
2022-08-25T00:44:31.720Z,4.15
2022-08-25T00:47:01.240Z,4.95
2022-08-25T00:49:41.809Z,3.80
2022-08-25T00:52:14.078Z,3.15
2022-08-25T00:54:47.361Z,3.55
2022-08-25T00:57:16.917Z,4.82
2022-08-25T00:59:44.470Z,3.53
2022-08-25T01:02:14.560Z,4.30
2022-08-25T01:04:48.974Z,2.42
2022-08-25T01:07:18.966Z,3.80
2022-08-25T01:09:48.155Z,3.03
2022-08-25T01:12:15.653Z,3.67
2022-08-25T01:14:45.941Z,4.35
2022-08-25T01:17:14.143Z,3.88
2022-08-25T01:19:41.928Z,4.32
2022-08-25T01:22:10.527Z,4.55
2022-08-25T01:24:46.967Z,3.00
2022-08-25T01:27:14.406Z,6.32
2022-08-25T01:29:41.461Z,5.30
2022-08-25T01:32:12.134Z,5.35
2022-08-25T01:34:42.615Z,4.03
2022-08-25T01:37:13.434Z,4.35
2022-08-25T01:39:41.684Z,4.43
2022-08-25T01:42:11.948Z,3.25
2022-08-25T01:44:41.420Z,4.72
2022-08-25T01:47:08.554Z,4.15
2022-08-25T01:49:35.683Z,3.20
2022-08-25T01:52:51.058Z,4.22
2022-08-25T01:55:18.157Z,4.05
2022-08-25T01:57:44.888Z,4.80
2022-08-25T02:00:13.946Z,4.43
2022-08-25T02:02:42.510Z,3.40
2022-08-25T02:05:11.899Z,5.95
2022-08-25T02:07:39.636Z,4.30
2022-08-25T02:10:07.679Z,4.20
2022-08-25T02:12:35.980Z,3.35
2022-08-25T02:15:06.180Z,4.18
2022-08-25T02:17:34.216Z,2.92
2022-08-25T02:20:00.905Z,5.68
2022-08-25T02:22:28.776Z,5.13
2022-08-25T02:24:55.526Z,3.50
2022-08-25T02:27:24.142Z,3.85
2022-08-25T02:29:52.392Z,5.18
2022-08-25T02:32:19.147Z,3.78
2022-08-25T02:34:46.293Z,3.85
2022-08-25T02:37:14.058Z,3.55
2022-08-25T02:39:41.266Z,5.25
2022-08-25T02:42:08.424Z,4.50
2022-08-25T02:44:35.595Z,5.55
2022-08-25T02:47:03.081Z,3.75
2022-08-25T02:49:33.067Z,6.47
2022-08-25T02:52:00.621Z,4.65
2022-08-25T02:54:28.656Z,4.65
2022-08-25T02:56:55.336Z,3.47
2022-08-25T02:59:22.475Z,3.95
2022-08-25T03:01:49.618Z,4.57
2022-08-25T03:04:16.773Z,4.25
2022-08-25T03:06:43.979Z,4.55
2022-08-25T03:09:11.807Z,4.15
2022-08-25T03:11:38.499Z,3.75
2022-08-25T03:14:09.614Z,4.07
2022-08-25T03:16:40.103Z,3.40
2022-08-25T03:19:07.213Z,3.53
2022-08-25T03:21:34.254Z,5.70
2022-08-25T03:24:01.346Z,4.97
2022-08-25T03:26:46.722Z,3.25
2022-08-25T03:29:13.991Z,5.18
2022-08-25T03:31:42.983Z,3.72
2022-08-25T03:34:10.006Z,3.45
2022-08-25T03:36:37.100Z,3.88
2022-08-25T03:39:04.203Z,3.65
2022-08-25T03:41:35.024Z,5.00
2022-08-25T03:44:04.027Z,3.55
2022-08-25T03:46:33.822Z,3.80
2022-08-25T03:49:06.431Z,3.20
2022-08-25T03:51:37.147Z,3.22
2022-08-25T03:54:04.853Z,3.92
2022-08-25T03:56:31.618Z,6.75
2022-08-25T03:58:58.484Z,3.55
2022-08-25T04:01:25.834Z,4.20
2022-08-25T04:03:53.091Z,3.65
2022-08-25T04:06:20.653Z,4.88
2022-08-25T04:08:47.828Z,5.53
2022-08-25T04:11:18.682Z,4.93
2022-08-25T04:13:47.589Z,3.70
2022-08-25T04:16:18.514Z,5.10
2022-08-25T04:18:46.088Z,5.63
2022-08-25T04:21:13.544Z,6.57
2022-08-25T04:23:42.507Z,3.75
2022-08-25T04:26:15.162Z,7.43
2022-08-25T04:28:42.205Z,3.72
2022-08-25T04:31:10.825Z,4.70
2022-08-25T04:33:38.631Z,5.35
2022-08-25T04:36:10.148Z,4.10
2022-08-25T04:38:39.650Z,3.88
2022-08-25T04:41:09.171Z,6.95
2022-08-25T04:43:37.247Z,4.30
2022-08-25T04:46:11.137Z,6.13
2022-08-25T04:48:39.896Z,6.32
2022-08-25T04:51:08.674Z,4.43
2022-08-25T04:53:35.642Z,5.05
2022-08-25T04:56:06.542Z,4.82
2022-08-25T04:58:34.073Z,6.57
2022-08-25T05:01:09.229Z,3.88
2022-08-25T05:03:36.946Z,3.75
2022-08-25T05:06:04.722Z,5.55
2022-08-25T05:08:32.983Z,7.57
2022-08-25T05:11:04.669Z,5.47
2022-08-25T05:13:32.958Z,7.97
2022-08-25T05:16:00.705Z,7.18
2022-08-25T05:18:30.253Z,6.88
2022-08-25T05:21:01.425Z,10.30
2022-08-25T05:23:28.153Z,6.47
2022-08-25T05:25:54.989Z,6.72
2022-08-25T05:28:22.420Z,5.07
2022-08-25T05:30:50.133Z,5.18
2022-08-25T05:33:18.290Z,5.10
2022-08-25T05:35:45.103Z,7.47
2022-08-25T05:38:15.384Z,7.13
2022-08-25T05:40:42.534Z,5.82
2022-08-25T05:43:10.163Z,7.55
2022-08-25T05:45:37.355Z,5.72
2022-08-25T05:48:04.712Z,7.30
2022-08-25T05:50:31.521Z,6.53
2022-08-25T05:52:58.696Z,5.18
2022-08-25T05:55:25.525Z,5.65
2022-08-25T05:57:52.425Z,5.72
2022-08-25T06:00:19.372Z,7.32
2022-08-25T06:02:48.553Z,8.80
2022-08-25T06:05:16.487Z,5.43
2022-08-25T06:07:44.447Z,7.40
2022-08-25T06:10:12.016Z,3.95
2022-08-25T06:12:40.866Z,12.82
2022-08-25T06:15:11.447Z,5.03
2022-08-25T06:17:42.883Z,5.75
2022-08-25T06:20:14.495Z,7.18
2022-08-25T06:22:41.550Z,4.65
2022-08-25T06:25:10.108Z,7.50
2022-08-25T06:27:37.495Z,5.80
2022-08-25T06:30:07.615Z,6.57
2022-08-25T06:32:36.501Z,7.53
2022-08-25T06:35:04.645Z,4.18
2022-08-25T06:37:31.805Z,5.20
2022-08-25T06:39:58.989Z,6.38
2022-08-25T06:42:26.234Z,5.90
2022-08-25T06:44:52.955Z,5.93
2022-08-25T06:47:20.186Z,5.07
2022-08-25T06:49:46.987Z,6.35
2022-08-25T06:52:14.625Z,5.97
2022-08-25T06:54:41.542Z,4.55
2022-08-25T06:57:08.741Z,5.95
2022-08-25T06:59:36.267Z,4.00
2022-08-25T07:02:04.162Z,5.47
2022-08-25T07:04:31.852Z,5.95
2022-08-25T07:06:59.117Z,8.43
2022-08-25T07:09:26.367Z,5.10
2022-08-25T07:11:53.914Z,8.52
2022-08-25T07:14:22.108Z,5.25
2022-08-25T07:16:50.401Z,4.50
2022-08-25T07:19:20.567Z,6.28
2022-08-25T07:21:51.973Z,5.03
2022-08-25T07:24:18.973Z,4.15
2022-08-25T07:26:46.749Z,6.28
2022-08-25T07:29:31.893Z,4.38
2022-08-25T07:32:01.482Z,6.45
2022-08-25T07:34:52.600Z,4.82
2022-08-25T07:37:38.359Z,5.47
2022-08-25T07:40:08.497Z,6.85
2022-08-25T07:42:36.030Z,6.82
2022-08-25T07:45:06.101Z,4.93
2022-08-25T07:47:34.797Z,6.35
2022-08-25T07:50:01.807Z,5.20
2022-08-25T07:52:28.569Z,8.80
2022-08-25T07:54:55.321Z,6.30
2022-08-25T07:57:23.934Z,7.65
2022-08-25T07:59:50.909Z,6.70
2022-08-25T08:02:19.491Z,5.63
2022-08-25T08:04:51.714Z,4.30
2022-08-25T08:07:20.558Z,4.20
2022-08-25T08:09:56.187Z,4.95
2022-08-25T08:12:33.993Z,8.75
2022-08-25T08:15:01.301Z,6.00
2022-08-25T08:17:28.105Z,6.28
2022-08-25T08:19:55.137Z,5.68
2022-08-25T08:22:21.850Z,4.85
2022-08-25T08:24:54.189Z,3.97
2022-08-25T08:27:21.359Z,5.65
2022-08-25T08:29:49.282Z,5.75
2022-08-25T08:32:17.916Z,5.28
2022-08-25T08:34:47.029Z,4.93
2022-08-25T08:37:18.798Z,6.07
2022-08-25T08:39:49.622Z,5.85
2022-08-25T08:42:22.259Z,4.80
2022-08-25T08:44:57.000Z,4.38
2022-08-25T08:47:37.842Z,5.30
2022-08-25T08:50:07.246Z,5.82
2022-08-25T08:52:34.321Z,4.38
2022-08-25T08:55:05.557Z,4.32
2022-08-25T08:57:40.110Z,4.63
2022-08-25T09:00:08.453Z,7.35
2022-08-25T09:02:51.939Z,5.93
2022-08-25T09:05:22.698Z,4.40
2022-08-25T09:07:56.601Z,6.55
2022-08-25T09:10:26.160Z,4.95
2022-08-25T09:13:26.123Z,4.30
2022-08-25T09:16:23.445Z,5.35
2022-08-25T09:19:08.627Z,6.88
2022-08-25T09:22:02.828Z,5.07
2022-08-25T09:24:57.149Z,5.00
2022-08-25T09:28:02.183Z,6.32
2022-08-25T09:30:45.692Z,7.78
2022-08-25T09:33:21.108Z,4.97
2022-08-25T09:35:50.499Z,6.38
2022-08-25T09:38:21.090Z,6.63
2022-08-25T09:40:51.319Z,4.75
2022-08-25T09:43:23.340Z,4.30
2022-08-25T09:46:08.740Z,6.78
2022-08-25T09:48:56.402Z,5.25
2022-08-25T09:51:42.490Z,6.07
2022-08-25T09:54:13.090Z,4.05
2022-08-25T09:56:54.784Z,5.55
2022-08-25T09:59:36.909Z,4.43
2022-08-25T10:02:22.182Z,4.30
2022-08-25T10:04:48.972Z,4.85
2022-08-25T10:07:48.127Z,4.40
2022-08-25T10:10:27.403Z,3.45
2022-08-25T10:13:00.938Z,3.80
2022-08-25T10:15:33.039Z,5.28
2022-08-25T10:18:26.695Z,4.43
2022-08-25T10:21:18.935Z,6.18
2022-08-25T10:23:51.546Z,4.45
2022-08-25T10:26:45.178Z,6.05
2022-08-25T10:29:32.601Z,5.10
2022-08-25T10:32:14.711Z,5.43
2022-08-25T10:34:55.365Z,4.93
2022-08-25T10:37:23.452Z,6.35
2022-08-25T10:39:58.280Z,4.05
2022-08-25T10:42:51.487Z,5.80
2022-08-25T10:45:41.240Z,5.68
2022-08-25T10:48:08.559Z,3.88
2022-08-25T10:50:56.443Z,3.58
2022-08-25T10:53:37.473Z,3.67
2022-08-25T10:56:07.202Z,3.75
2022-08-25T10:58:59.868Z,4.55
2022-08-25T11:01:43.459Z,4.75
2022-08-25T11:04:27.564Z,4.03
2022-08-25T11:07:25.018Z,4.05
2022-08-25T11:09:57.727Z,3.97
2022-08-25T11:12:36.050Z,5.95
2022-08-25T11:15:09.963Z,5.28
2022-08-25T11:17:56.613Z,6.20
2022-08-25T11:20:41.863Z,4.15
2022-08-25T11:23:28.447Z,4.38
2022-08-25T11:26:04.282Z,4.40
2022-08-25T11:28:35.527Z,3.58
2022-08-25T11:31:03.995Z,4.18
2022-08-25T11:33:33.637Z,4.10
2022-08-25T11:36:12.811Z,4.57
2022-08-25T11:38:58.663Z,4.43
2022-08-25T11:41:32.310Z,4.32
2022-08-25T11:44:19.071Z,6.15
2022-08-25T11:47:13.133Z,5.22
2022-08-25T11:49:52.743Z,4.53
2022-08-25T11:52:34.694Z,5.00
2022-08-25T11:55:22.849Z,3.47
2022-08-25T11:57:53.527Z,5.88
2022-08-25T12:00:39.797Z,4.45
2022-08-25T12:03:32.734Z,4.55
2022-08-25T12:06:23.372Z,5.50
2022-08-25T12:09:05.745Z,4.20
2022-08-25T12:11:41.733Z,3.47
2022-08-25T12:14:16.362Z,4.15
2022-08-25T12:17:05.209Z,3.67
2022-08-25T12:19:34.942Z,4.72
2022-08-25T12:22:03.482Z,4.65
2022-08-25T12:24:47.897Z,4.25
2022-08-25T12:27:44.168Z,4.93
2022-08-25T12:30:21.441Z,4.47
2022-08-25T12:33:07.054Z,4.00
2022-08-25T12:35:52.970Z,3.60
2022-08-25T12:38:32.054Z,3.72
2022-08-25T12:41:33.687Z,3.90
2022-08-25T12:44:39.609Z,4.32
2022-08-25T12:47:27.182Z,3.95
2022-08-25T12:50:28.972Z,3.70
2022-08-25T12:53:02.613Z,5.13
2022-08-25T12:55:30.023Z,4.72
2022-08-25T12:57:58.831Z,5.68
2022-08-25T13:00:29.976Z,4.95
2022-08-25T13:03:34.453Z,4.43
2022-08-25T13:06:22.665Z,6.20
2022-08-25T13:09:20.866Z,4.55
2022-08-25T13:12:22.871Z,4.05
2022-08-25T13:14:54.914Z,4.47
2022-08-25T13:17:34.162Z,4.65
2022-08-25T13:20:18.986Z,6.60
2022-08-25T13:22:56.681Z,4.45
2022-08-25T13:25:32.420Z,3.97
2022-08-25T13:28:05.755Z,4.22
2022-08-25T13:30:37.072Z,4.20
2022-08-25T13:33:22.222Z,4.07
2022-08-25T13:36:11.473Z,4.22
2022-08-25T13:38:39.179Z,6.07
2022-08-25T13:41:09.434Z,4.90
2022-08-25T13:43:37.988Z,6.70
2022-08-25T13:46:05.893Z,5.22
2022-08-25T13:48:49.661Z,5.15
2022-08-25T13:51:31.481Z,3.78
2022-08-25T13:54:06.029Z,3.58
2022-08-25T13:56:41.811Z,3.95
2022-08-25T13:59:25.650Z,6.55
2022-08-25T14:01:54.651Z,4.40
2022-08-25T14:04:24.485Z,3.78
2022-08-25T14:07:12.509Z,5.32
2022-08-25T14:09:45.495Z,5.45
2022-08-25T14:15:03.843Z,5.75
2022-08-25T14:17:39.464Z,6.65
2022-08-25T14:20:17.959Z,8.85
2022-08-25T14:22:44.729Z,5.18
2022-08-25T14:25:11.988Z,3.88
2022-08-25T14:28:05.716Z,6.30
2022-08-25T14:30:31.469Z,4.35
2022-08-25T14:32:59.035Z,4.03
2022-08-25T14:35:26.343Z,7.30
2022-08-25T14:37:53.830Z,6.70
2022-08-25T14:40:20.626Z,5.82
2022-08-25T14:42:48.383Z,3.22
2022-08-25T14:45:19.181Z,5.78
2022-08-25T14:47:49.650Z,4.85
2022-08-25T14:50:17.454Z,3.30
2022-08-25T14:52:47.909Z,3.33
2022-08-25T14:55:31.285Z,5.22
2022-08-25T14:57:58.707Z,5.50
2022-08-25T15:00:26.304Z,4.57
2022-08-25T15:02:53.553Z,3.33
2022-08-25T15:05:28.377Z,3.72
2022-08-25T15:08:14.463Z,4.13
2022-08-25T15:10:43.492Z,3.78
2022-08-25T15:13:10.811Z,3.65
2022-08-25T15:15:39.886Z,4.18
2022-08-25T15:18:20.381Z,3.55
2022-08-25T15:20:47.532Z,4.53
2022-08-25T15:23:17.456Z,3.42
2022-08-25T15:25:47.268Z,3.60
2022-08-25T15:28:17.117Z,4.80
2022-08-25T15:30:45.888Z,4.65
2022-08-25T15:33:13.866Z,3.20
2022-08-25T15:35:41.009Z,5.20
2022-08-25T15:38:08.225Z,4.32
2022-08-25T15:40:37.583Z,4.57
2022-08-25T15:43:05.209Z,3.53
2022-08-25T15:45:32.780Z,6.55
2022-08-25T15:47:59.632Z,4.45
2022-08-25T15:50:26.841Z,4.38
2022-08-25T15:52:54.021Z,3.58
2022-08-25T15:55:21.250Z,5.38
2022-08-25T15:57:49.606Z,4.70
2022-08-25T16:00:18.191Z,4.65
2022-08-25T16:02:46.233Z,3.20
2022-08-25T16:05:16.227Z,3.53
2022-08-25T16:07:46.031Z,4.07
2022-08-25T16:10:13.537Z,5.38
2022-08-25T16:12:42.624Z,4.63
2022-08-25T16:15:12.065Z,6.20
2022-08-25T16:17:40.790Z,3.70
2022-08-25T16:20:13.640Z,3.33
2022-08-25T16:22:41.353Z,3.70
2022-08-25T16:25:08.711Z,3.30
2022-08-25T16:27:38.786Z,2.80
2022-08-25T16:30:07.994Z,4.95
2022-08-25T16:32:35.595Z,10.00
2022-08-25T16:35:02.904Z,4.70
2022-08-25T16:37:30.079Z,4.65
2022-08-25T16:39:57.523Z,3.53
2022-08-25T16:42:26.161Z,4.68
2022-08-25T16:44:53.959Z,3.88
2022-08-25T16:47:25.113Z,2.83
2022-08-25T16:49:54.125Z,3.40
2022-08-25T16:52:40.705Z,3.60
2022-08-25T16:55:15.917Z,3.53
2022-08-25T16:57:49.544Z,4.55
2022-08-25T17:00:23.209Z,3.67
2022-08-25T17:02:54.153Z,2.97
2022-08-25T17:05:21.467Z,4.32
2022-08-25T17:08:08.424Z,3.15
2022-08-25T17:10:40.887Z,3.70
2022-08-25T17:13:09.070Z,2.83
2022-08-25T17:15:40.799Z,3.45
2022-08-25T17:18:08.485Z,5.30
2022-08-25T17:20:38.295Z,3.50
2022-08-25T17:23:11.990Z,3.05
2022-08-25T17:25:43.023Z,2.90
2022-08-25T17:28:11.977Z,4.07
2022-08-25T17:30:39.637Z,3.58
2022-08-25T17:33:06.808Z,5.57
2022-08-25T17:35:39.894Z,4.28
2022-08-25T17:38:07.267Z,3.42
2022-08-25T17:40:35.849Z,3.70
2022-08-25T17:43:02.693Z,5.60
2022-08-25T17:45:29.948Z,10.80
2022-08-25T17:47:58.947Z,6.95
2022-08-25T17:50:26.627Z,5.82
2022-08-25T17:52:53.592Z,5.10
2022-08-25T17:55:24.220Z,3.63
2022-08-25T17:57:51.460Z,5.65
2022-08-25T18:00:20.278Z,5.07
2022-08-25T18:02:48.414Z,5.35
2022-08-25T18:05:17.347Z,4.53
2022-08-25T18:07:44.112Z,4.03
2022-08-25T18:10:11.677Z,4.85
2022-08-25T18:12:38.828Z,5.43
2022-08-25T18:15:06.848Z,4.70
2022-08-25T18:17:36.526Z,4.68
2022-08-25T18:20:10.060Z,10.15
2022-08-25T18:22:38.558Z,11.18
2022-08-25T18:25:06.943Z,10.50
2022-08-25T18:27:34.614Z,11.02
2022-08-25T18:30:01.987Z,14.45
2022-08-25T18:32:29.299Z,17.48
2022-08-25T18:34:56.577Z,8.95
2022-08-25T18:37:42.572Z,15.70
2022-08-25T18:40:25.513Z,10.27
2022-08-25T18:42:57.741Z,9.18
2022-08-25T18:45:31.868Z,7.75
2022-08-25T18:47:59.887Z,8.55
2022-08-25T18:50:30.447Z,10.68
2022-08-25T18:52:57.963Z,6.70
2022-08-25T18:55:24.933Z,11.02
2022-08-25T18:57:51.818Z,9.95
2022-08-25T19:00:21.108Z,8.63
2022-08-25T19:02:49.806Z,9.75
2022-08-25T19:05:22.855Z,12.13
2022-08-25T19:07:52.011Z,14.27
2022-08-25T19:10:20.550Z,8.70
2022-08-25T19:12:51.089Z,6.35
2022-08-25T19:15:18.586Z,11.65
2022-08-25T19:17:53.104Z,11.38
2022-08-25T19:20:21.671Z,7.68
2022-08-25T19:22:49.233Z,6.68
2022-08-25T19:25:17.080Z,6.00
2022-08-25T19:27:44.921Z,7.95
2022-08-25T19:30:14.015Z,6.30
2022-08-25T19:32:42.763Z,6.68
2022-08-25T19:35:18.537Z,8.48
2022-08-25T19:37:45.509Z,8.02
2022-08-25T19:40:12.835Z,6.43
2022-08-25T19:42:40.233Z,8.57
2022-08-25T19:45:11.151Z,7.78
2022-08-25T19:47:38.423Z,6.15
2022-08-25T19:50:06.811Z,7.53
2022-08-25T19:52:34.329Z,8.13
2022-08-25T19:55:02.802Z,7.75
2022-08-25T19:57:42.640Z,5.15
2022-08-25T20:00:21.782Z,7.75
2022-08-25T20:02:48.821Z,4.95
2022-08-25T20:05:16.899Z,8.38
2022-08-25T20:07:53.132Z,8.07
2022-08-25T20:10:21.012Z,8.38
2022-08-25T20:12:47.958Z,9.32
2022-08-25T20:15:16.650Z,5.38
2022-08-25T20:17:45.002Z,6.75
2022-08-25T20:20:15.678Z,8.18
2022-08-25T20:22:42.537Z,7.60
2022-08-25T20:25:13.982Z,6.07
2022-08-25T20:27:45.017Z,7.75
2022-08-25T20:30:18.977Z,5.97
2022-08-25T20:32:46.196Z,7.43
2022-08-25T20:35:14.472Z,8.40
2022-08-25T20:37:43.919Z,7.20
2022-08-25T20:40:13.561Z,6.93
2022-08-25T20:42:40.681Z,7.13
2022-08-25T20:45:10.534Z,7.55
2022-08-25T20:47:37.332Z,6.97
2022-08-25T20:50:06.941Z,8.25
2022-08-25T20:52:34.578Z,6.20
2022-08-25T20:55:01.752Z,5.25
2022-08-25T20:57:28.680Z,6.15
2022-08-25T20:59:55.913Z,6.47
2022-08-25T21:02:23.947Z,7.72
2022-08-25T21:04:51.505Z,8.07
2022-08-25T21:07:19.713Z,9.77
2022-08-25T21:09:47.784Z,7.43
2022-08-25T21:12:15.184Z,9.50
2022-08-25T21:14:42.229Z,9.40
2022-08-25T21:17:12.750Z,5.38
2022-08-25T21:19:39.940Z,6.38
2022-08-25T21:22:07.460Z,7.43
2022-08-25T21:24:35.011Z,7.70
2022-08-25T21:27:03.665Z,5.80
2022-08-25T21:29:32.755Z,8.20
2022-08-25T21:31:59.617Z,5.90
2022-08-25T21:34:28.245Z,5.93
2022-08-25T21:36:57.977Z,7.50
2022-08-25T21:39:27.453Z,7.30
2022-08-25T21:41:56.402Z,5.70
2022-08-25T21:44:23.468Z,6.28
2022-08-25T21:46:54.427Z,6.25
2022-08-25T21:49:22.384Z,6.20
2022-08-25T21:52:02.374Z,6.60
2022-08-25T21:54:31.808Z,5.72
2022-08-25T21:57:02.553Z,7.35
2022-08-25T21:59:32.883Z,5.47
2022-08-25T22:02:05.455Z,8.68
2022-08-25T22:04:33.113Z,7.50
2022-08-25T22:07:00.461Z,8.05
2022-08-25T22:09:28.518Z,8.80
2022-08-25T22:11:56.138Z,6.90
2022-08-25T22:14:26.190Z,6.53
2022-08-25T22:16:53.695Z,5.72
2022-08-25T22:19:21.487Z,8.38
2022-08-25T22:21:50.238Z,6.88
2022-08-25T22:24:17.975Z,8.00
2022-08-25T22:26:47.527Z,8.68
2022-08-25T22:29:23.257Z,9.27
2022-08-25T22:31:59.344Z,6.88
2022-08-25T22:34:33.259Z,6.07
2022-08-25T22:37:01.221Z,6.80
2022-08-25T22:39:29.091Z,7.82
2022-08-25T22:41:56.234Z,8.23
2022-08-25T22:44:23.494Z,8.98
2022-08-25T22:46:50.660Z,7.53
2022-08-25T22:49:17.950Z,8.32
2022-08-25T22:51:44.846Z,6.60
2022-08-25T22:54:15.044Z,9.93
2022-08-25T22:56:42.335Z,7.43
2022-08-25T22:59:12.473Z,11.20
2022-08-25T23:01:40.224Z,6.00
2022-08-25T23:04:08.053Z,7.20
2022-08-25T23:06:35.364Z,6.25
2022-08-25T23:09:04.945Z,5.95
2022-08-25T23:11:31.663Z,6.88
2022-08-25T23:14:05.623Z,7.07
2022-08-25T23:16:33.086Z,6.97
2022-08-25T23:19:00.316Z,6.43
2022-08-25T23:21:46.153Z,8.65
2022-08-25T23:24:29.342Z,6.47
2022-08-25T23:27:01.936Z,7.85
2022-08-25T23:29:29.934Z,8.38
2022-08-25T23:31:58.318Z,7.00
2022-08-25T23:34:26.253Z,6.60
2022-08-25T23:36:53.256Z,6.68
2022-08-25T23:39:21.846Z,7.15
2022-08-25T23:41:49.274Z,6.53
2022-08-25T23:44:17.161Z,6.65
2022-08-25T23:46:45.183Z,6.25
2022-08-25T23:49:14.418Z,6.65
2022-08-25T23:51:46.332Z,9.70
2022-08-25T23:54:14.676Z,7.25
2022-08-25T23:56:51.941Z,7.85
2022-08-25T23:59:24.851Z,6.50
